createdAt,value
2023-02-09T00:00:51.076Z,-3.18
2023-02-09T00:01:51.055Z,-3.12
2023-02-09T00:02:51.058Z,-3.08
2023-02-09T00:03:51.116Z,-3.00
2023-02-09T00:04:51.018Z,-3.00
2023-02-09T00:05:51.059Z,-3.07
2023-02-09T00:06:50.993Z,-3.04
2023-02-09T00:07:51.009Z,-2.94
2023-02-09T00:08:50.999Z,-2.93
2023-02-09T00:09:50.964Z,-3.19
2023-02-09T00:10:50.988Z,-3.31
2023-02-09T00:11:50.932Z,-3.41
2023-02-09T00:12:50.931Z,-3.65
2023-02-09T00:13:51.024Z,-3.76
2023-02-09T00:14:50.913Z,-3.72
2023-02-09T00:15:50.917Z,-3.83
2023-02-09T00:16:51.035Z,-3.97
2023-02-09T00:17:51.027Z,-4.01
2023-02-09T00:18:50.873Z,-3.95
2023-02-09T00:19:50.883Z,-3.83
2023-02-09T00:20:50.868Z,-3.68
2023-02-09T00:21:50.843Z,-3.58
2023-02-09T00:22:50.878Z,-3.39
2023-02-09T00:23:50.833Z,-3.19
2023-02-09T00:24:50.839Z,-3.15
2023-02-09T00:25:50.880Z,-3.10
2023-02-09T00:26:50.807Z,-3.16
2023-02-09T00:27:50.842Z,-3.15
2023-02-09T00:28:50.762Z,-3.18
2023-02-09T00:29:50.825Z,-3.40
2023-02-09T00:30:50.849Z,-3.34
2023-02-09T00:31:50.827Z,-3.40
2023-02-09T00:32:50.962Z,-3.40
2023-02-09T00:33:50.822Z,-3.37
2023-02-09T00:34:50.747Z,-3.43
2023-02-09T00:35:50.724Z,-3.57
2023-02-09T00:36:50.709Z,-3.65
2023-02-09T00:37:50.717Z,-3.74
2023-02-09T00:38:50.692Z,-3.70
2023-02-09T00:39:50.686Z,-3.80
2023-02-09T00:40:50.730Z,-3.91
2023-02-09T00:41:50.638Z,-3.94
2023-02-09T00:42:50.663Z,-3.89
2023-02-09T00:43:50.616Z,-3.98
2023-02-09T00:44:50.637Z,-3.94
2023-02-09T00:45:50.660Z,-3.98
2023-02-09T00:46:50.593Z,-4.04
2023-02-09T00:47:50.613Z,-4.06
2023-02-09T00:48:50.598Z,-3.94
2023-02-09T00:49:50.587Z,-3.97
2023-02-09T00:50:50.553Z,-3.99
2023-02-09T00:51:50.557Z,-4.16
2023-02-09T00:52:50.572Z,-4.20
2023-02-09T00:53:50.589Z,-4.30
2023-02-09T00:54:50.521Z,-4.36
2023-02-09T00:55:50.516Z,-4.40
2023-02-09T00:56:50.498Z,-4.54
2023-02-09T00:57:50.495Z,-4.69
2023-02-09T00:58:50.501Z,-4.62
2023-02-09T00:59:50.449Z,-4.49
2023-02-09T01:00:50.510Z,-4.45
2023-02-09T01:01:50.539Z,-4.51
2023-02-09T01:02:50.439Z,-4.48
2023-02-09T01:03:50.432Z,-4.63
2023-02-09T01:04:50.420Z,-4.40
2023-02-09T01:05:50.459Z,-4.33
2023-02-09T01:06:50.401Z,-4.22
2023-02-09T01:07:50.412Z,-4.19
2023-02-09T01:08:50.358Z,-4.33
2023-02-09T01:09:50.387Z,-4.40
2023-02-09T01:10:50.331Z,-4.33
2023-02-09T01:11:50.343Z,-4.12
2023-02-09T01:12:50.437Z,-4.15
2023-02-09T01:13:50.317Z,-4.15
2023-02-09T01:14:50.295Z,-4.10
2023-02-09T01:15:50.304Z,-4.16
2023-02-09T01:16:50.393Z,-4.07
2023-02-09T01:17:50.293Z,-4.01
2023-02-09T01:18:50.276Z,-4.04
2023-02-09T01:19:50.297Z,-4.04
2023-02-09T01:20:50.376Z,-3.94
2023-02-09T01:21:50.250Z,-3.98
2023-02-09T01:22:50.233Z,-4.10
2023-02-09T01:23:50.285Z,-4.28
2023-02-09T01:24:50.213Z,-4.34
2023-02-09T01:25:50.221Z,-4.45
2023-02-09T01:26:50.171Z,-4.41
2023-02-09T01:27:50.268Z,-4.37
2023-02-09T01:28:50.235Z,-4.41
2023-02-09T01:29:50.146Z,-4.45
2023-02-09T01:30:50.324Z,-4.55
2023-02-09T01:31:50.334Z,-4.74
2023-02-09T01:32:50.140Z,-4.77
2023-02-09T01:33:50.101Z,-4.77
2023-02-09T01:34:50.214Z,-4.67
2023-02-09T01:35:50.104Z,-4.83
2023-02-09T01:36:50.099Z,-4.79
2023-02-09T01:37:50.127Z,-4.88
2023-02-09T01:38:50.093Z,-4.77
2023-02-09T01:39:50.062Z,-4.79
2023-02-09T01:40:50.056Z,-4.81
2023-02-09T01:41:50.062Z,-4.94
2023-02-09T01:42:50.035Z,-4.84
2023-02-09T01:43:50.032Z,-4.88
2023-02-09T01:44:50.059Z,-4.87
2023-02-09T01:45:50.134Z,-4.91
2023-02-09T01:46:49.982Z,-5.03
2023-02-09T01:47:49.975Z,-5.17
2023-02-09T01:48:50.188Z,-5.09
2023-02-09T01:49:49.985Z,-5.20
2023-02-09T01:50:49.946Z,-5.25
2023-02-09T01:51:49.945Z,-5.31
2023-02-09T01:52:49.935Z,-5.41
2023-02-09T01:53:49.980Z,-5.35
2023-02-09T01:54:49.908Z,-5.42
2023-02-09T01:55:49.937Z,-5.41
2023-02-09T01:56:49.897Z,-5.39
2023-02-09T01:57:49.908Z,-5.39
2023-02-09T01:58:49.881Z,-5.34
2023-02-09T01:59:49.902Z,-5.30
2023-02-09T02:00:49.844Z,-5.21
2023-02-09T02:01:49.882Z,-4.74
2023-02-09T02:02:49.943Z,-4.79
2023-02-09T02:03:49.827Z,-4.76
2023-02-09T02:04:49.841Z,-4.66
2023-02-09T02:05:49.825Z,-4.45
2023-02-09T02:06:49.790Z,-4.45
2023-02-09T02:07:49.798Z,-4.30
2023-02-09T02:08:49.786Z,-4.02
2023-02-09T02:09:49.762Z,-3.99
2023-02-09T02:10:49.732Z,-3.92
2023-02-09T02:11:49.735Z,-4.07
2023-02-09T02:12:49.726Z,-4.12
2023-02-09T02:13:49.702Z,-4.02
2023-02-09T02:14:49.705Z,-4.16
2023-02-09T02:15:49.735Z,-4.13
2023-02-09T02:16:49.696Z,-4.26
2023-02-09T02:17:49.690Z,-4.17
2023-02-09T02:18:49.654Z,-4.46
2023-02-09T02:19:49.654Z,-4.41
2023-02-09T02:20:49.658Z,-4.49
2023-02-09T02:21:49.619Z,-4.55
2023-02-09T02:22:49.627Z,-4.49
2023-02-09T02:23:49.651Z,-4.45
2023-02-09T02:24:49.641Z,-4.55
2023-02-09T02:25:49.779Z,-4.59
2023-02-09T02:26:49.585Z,-4.66
2023-02-09T02:27:49.580Z,-4.66
2023-02-09T02:28:49.556Z,-4.74
2023-02-09T02:29:49.580Z,-4.84
2023-02-09T02:30:49.935Z,-4.76
2023-02-09T02:31:49.603Z,-4.81
2023-02-09T02:32:49.561Z,-4.74
2023-02-09T02:33:49.492Z,-4.79
2023-02-09T02:34:49.531Z,-4.69
2023-02-09T02:35:49.486Z,-4.46
2023-02-09T02:36:49.508Z,-4.69
2023-02-09T02:37:49.525Z,-4.65
2023-02-09T02:38:49.450Z,-4.77
2023-02-09T02:39:49.453Z,-4.81
2023-02-09T02:40:49.467Z,-4.87
2023-02-09T02:41:49.454Z,-4.88
2023-02-09T02:42:49.418Z,-4.97
2023-02-09T02:43:49.398Z,-5.12
2023-02-09T02:44:49.395Z,-5.05
2023-02-09T02:45:49.462Z,-5.11
2023-02-09T02:46:49.389Z,-5.08
2023-02-09T02:47:49.397Z,-5.12
2023-02-09T02:48:49.360Z,-5.11
2023-02-09T02:49:49.349Z,-5.17
2023-02-09T02:50:49.453Z,-5.23
2023-02-09T02:51:49.388Z,-5.23
2023-02-09T02:52:49.336Z,-5.09
2023-02-09T02:53:49.308Z,-4.97
2023-02-09T02:54:49.388Z,-4.97
2023-02-09T02:55:49.300Z,-5.01
2023-02-09T02:56:49.284Z,-5.01
2023-02-09T02:57:49.315Z,-4.88
2023-02-09T02:58:49.286Z,-5.03
2023-02-09T02:59:49.277Z,-4.84
2023-02-09T03:00:49.306Z,-4.69
2023-02-09T03:01:49.269Z,-4.49
2023-02-09T03:02:49.317Z,-4.19
2023-02-09T03:03:49.213Z,-3.99
2023-02-09T03:04:49.218Z,-4.12
2023-02-09T03:05:49.202Z,-4.07
2023-02-09T03:06:49.200Z,-4.19
2023-02-09T03:07:49.194Z,-4.28
2023-02-09T03:08:49.233Z,-4.34
2023-02-09T03:09:49.188Z,-4.49
2023-02-09T03:10:49.133Z,-4.49
2023-02-09T03:11:49.202Z,-4.66
2023-02-09T03:12:49.130Z,-4.62
2023-02-09T03:13:49.130Z,-4.72
2023-02-09T03:14:49.111Z,-4.81
2023-02-09T03:15:49.277Z,-4.79
2023-02-09T03:16:49.080Z,-4.73
2023-02-09T03:17:49.250Z,-4.79
2023-02-09T03:18:49.070Z,-4.85
2023-02-09T03:19:49.049Z,-4.91
2023-02-09T03:20:49.049Z,-4.95
2023-02-09T03:21:49.025Z,-5.12
2023-02-09T03:22:49.224Z,-5.21
2023-02-09T03:23:49.037Z,-5.23
2023-02-09T03:24:49.007Z,-5.30
2023-02-09T03:25:49.007Z,-5.38
2023-02-09T03:26:48.974Z,-5.49
2023-02-09T03:27:49.003Z,-5.42
2023-02-09T03:28:48.955Z,-5.49
2023-02-09T03:29:48.942Z,-5.38
2023-02-09T03:30:49.054Z,-5.21
2023-02-09T03:31:49.019Z,-5.13
2023-02-09T03:32:48.928Z,-5.20
2023-02-09T03:33:48.941Z,-5.24
2023-02-09T03:34:48.897Z,-5.33
2023-02-09T03:35:48.913Z,-5.38
2023-02-09T03:36:48.935Z,-5.42
2023-02-09T03:37:48.880Z,-5.39
2023-02-09T03:38:48.857Z,-5.52
2023-02-09T03:39:48.964Z,-5.62
2023-02-09T03:40:48.872Z,-5.59
2023-02-09T03:41:48.820Z,-5.64
2023-02-09T03:42:49.006Z,-5.60
2023-02-09T03:43:48.808Z,-5.55
2023-02-09T03:44:48.831Z,-5.63
2023-02-09T03:45:48.831Z,-5.64
2023-02-09T03:46:48.911Z,-5.70
2023-02-09T03:47:48.824Z,-5.73
2023-02-09T03:48:48.784Z,-5.69
2023-02-09T03:49:48.855Z,-5.69
2023-02-09T03:50:48.735Z,-5.69
2023-02-09T03:51:48.725Z,-5.80
2023-02-09T03:52:48.730Z,-5.71
2023-02-09T03:53:48.925Z,-5.71
2023-02-09T03:54:48.717Z,-5.70
2023-02-09T03:55:48.680Z,-5.78
2023-02-09T03:56:48.706Z,-5.69
2023-02-09T03:57:48.681Z,-5.63
2023-02-09T03:58:48.643Z,-5.64
2023-02-09T03:59:48.647Z,-5.60
2023-02-09T04:00:48.644Z,-5.46
2023-02-09T04:01:48.634Z,-5.39
2023-02-09T04:02:48.776Z,-5.11
2023-02-09T04:03:48.609Z,-4.72
2023-02-09T04:04:48.740Z,-4.56
2023-02-09T04:05:48.603Z,-4.58
2023-02-09T04:06:48.601Z,-4.63
2023-02-09T04:07:48.565Z,-4.36
2023-02-09T04:08:48.545Z,-4.31
2023-02-09T04:09:48.548Z,-4.15
2023-02-09T04:10:48.544Z,-4.06
2023-02-09T04:11:48.510Z,-4.01
2023-02-09T04:12:48.536Z,-3.81
2023-02-09T04:13:48.513Z,-3.76
2023-02-09T04:14:48.484Z,-3.58
2023-02-09T04:15:48.554Z,-3.55
2023-02-09T04:16:48.474Z,-3.58
2023-02-09T04:17:50.722Z,-3.47
2023-02-09T04:18:48.444Z,-3.49
2023-02-09T04:19:48.631Z,-3.55
2023-02-09T04:20:48.525Z,-3.41
2023-02-09T04:21:48.421Z,-3.33
2023-02-09T04:22:48.445Z,-3.36
2023-02-09T04:23:48.426Z,-3.31
2023-02-09T04:24:48.428Z,-3.25
2023-02-09T04:25:48.423Z,-3.33
2023-02-09T04:26:48.413Z,-3.30
2023-02-09T04:27:48.378Z,-3.30
2023-02-09T04:28:48.350Z,-3.34
2023-02-09T04:29:48.413Z,-3.22
2023-02-09T04:30:48.690Z,-3.15
2023-02-09T04:31:48.378Z,-3.16
2023-02-09T04:32:48.522Z,-3.19
2023-02-09T04:33:48.307Z,-3.15
2023-02-09T04:34:48.280Z,-3.07
2023-02-09T04:35:48.301Z,-3.19
2023-02-09T04:36:48.267Z,-3.23
2023-02-09T04:37:48.265Z,-3.16
2023-02-09T04:38:48.300Z,-3.15
2023-02-09T04:39:48.223Z,-3.16
2023-02-09T04:40:48.227Z,-3.19
2023-02-09T04:41:48.224Z,-3.18
2023-02-09T04:42:48.210Z,-3.13
2023-02-09T04:43:48.297Z,-3.16
2023-02-09T04:44:48.239Z,-3.12
2023-02-09T04:45:48.258Z,-3.16
2023-02-09T04:46:48.230Z,-3.15
2023-02-09T04:47:48.230Z,-3.18
2023-02-09T04:48:48.256Z,-3.19
2023-02-09T04:49:48.182Z,-3.30
2023-02-09T04:50:48.149Z,-3.33
2023-02-09T04:51:48.142Z,-3.31
2023-02-09T04:52:48.140Z,-3.12
2023-02-09T04:53:48.134Z,-3.15
2023-02-09T04:54:48.105Z,-3.08
2023-02-09T04:55:48.108Z,-3.05
2023-02-09T04:56:48.193Z,-3.08
2023-02-09T04:57:48.090Z,-3.08
2023-02-09T04:58:48.098Z,-3.04
2023-02-09T04:59:48.078Z,-3.04
2023-02-09T05:00:48.377Z,-3.16
2023-02-09T05:01:48.018Z,-3.15
2023-02-09T05:02:48.017Z,-3.19
2023-02-09T05:03:48.111Z,-3.18
2023-02-09T05:04:47.999Z,-3.25
2023-02-09T05:05:48.079Z,-3.21
2023-02-09T05:06:48.007Z,-3.19
2023-02-09T05:07:48.021Z,-3.13
2023-02-09T05:08:47.953Z,-3.13
2023-02-09T05:09:47.928Z,-3.19
2023-02-09T05:10:48.108Z,-3.28
2023-02-09T05:11:47.968Z,-3.26
2023-02-09T05:12:47.923Z,-3.26
2023-02-09T05:13:47.958Z,-3.37
2023-02-09T05:14:47.911Z,-3.37
2023-02-09T05:15:47.944Z,-3.43
2023-02-09T05:16:48.020Z,-3.44
2023-02-09T05:17:47.921Z,-3.43
2023-02-09T05:18:47.853Z,-3.41
2023-02-09T05:19:48.032Z,-3.44
2023-02-09T05:20:48.103Z,-3.46
2023-02-09T05:21:47.882Z,-3.54
2023-02-09T05:22:50.046Z,-3.69
2023-02-09T05:23:47.801Z,-3.84
2023-02-09T05:24:47.781Z,-3.99
2023-02-09T05:25:47.798Z,-4.06
2023-02-09T05:26:47.753Z,-4.17
2023-02-09T05:27:47.773Z,-4.28
2023-02-09T05:28:47.801Z,-4.37
2023-02-09T05:29:47.756Z,-4.46
2023-02-09T05:30:48.241Z,-4.52
2023-02-09T05:31:47.768Z,-4.56
2023-02-09T05:32:47.764Z,-4.74
2023-02-09T05:33:47.708Z,-4.87
2023-02-09T05:34:47.738Z,-4.91
2023-02-09T05:35:47.687Z,-4.87
2023-02-09T05:36:47.704Z,-4.95
2023-02-09T05:37:47.760Z,-5.03
2023-02-09T05:38:47.677Z,-5.09
2023-02-09T05:39:47.659Z,-5.21
2023-02-09T05:40:47.967Z,-5.28
2023-02-09T05:41:47.693Z,-5.34
2023-02-09T05:42:47.659Z,-5.42
2023-02-09T05:43:47.632Z,-5.46
2023-02-09T05:44:47.574Z,-5.45
2023-02-09T05:45:47.736Z,-5.52
2023-02-09T05:46:47.589Z,-5.51
2023-02-09T05:47:47.577Z,-5.49
2023-02-09T05:48:47.542Z,-5.59
2023-02-09T05:49:47.644Z,-5.53
2023-02-09T05:50:47.864Z,-5.67
2023-02-09T05:51:47.535Z,-5.55
2023-02-09T05:52:47.536Z,-5.46
2023-02-09T05:53:47.498Z,-5.42
2023-02-09T05:54:47.482Z,-5.23
2023-02-09T05:55:47.517Z,-5.13
2023-02-09T05:56:47.461Z,-4.84
2023-02-09T05:57:47.589Z,-4.85
2023-02-09T05:58:47.444Z,-4.74
2023-02-09T05:59:47.447Z,-4.58
2023-02-09T06:00:47.793Z,-4.51
2023-02-09T06:01:47.478Z,-4.28
2023-02-09T06:02:47.533Z,-4.22
2023-02-09T06:03:47.432Z,-4.16
2023-02-09T06:04:47.376Z,-4.06
2023-02-09T06:05:47.494Z,-4.07
2023-02-09T06:06:47.392Z,-3.97
2023-02-09T06:07:47.379Z,-3.92
2023-02-09T06:08:47.337Z,-3.99
2023-02-09T06:09:47.454Z,-3.80
2023-02-09T06:10:47.686Z,-3.79
2023-02-09T06:11:47.301Z,-3.80
2023-02-09T06:12:47.377Z,-3.76
2023-02-09T06:13:47.285Z,-3.91
2023-02-09T06:14:47.310Z,-4.01
2023-02-09T06:15:47.410Z,-4.16
2023-02-09T06:16:47.273Z,-4.34
2023-02-09T06:17:47.289Z,-4.30
2023-02-09T06:18:47.249Z,-4.37
2023-02-09T06:19:47.236Z,-4.37
2023-02-09T06:20:47.490Z,-4.31
2023-02-09T06:21:47.317Z,-4.22
2023-02-09T06:22:47.215Z,-4.09
2023-02-09T06:23:47.196Z,-3.94
2023-02-09T06:24:47.190Z,-3.86
2023-02-09T06:25:47.160Z,-3.68
2023-02-09T06:26:47.190Z,-3.77
2023-02-09T06:27:47.174Z,-3.62
2023-02-09T06:28:47.127Z,-3.61
2023-02-09T06:29:47.224Z,-3.54
2023-02-09T06:30:47.759Z,-3.51
2023-02-09T06:31:47.256Z,-3.43
2023-02-09T06:32:47.119Z,-3.36
2023-02-09T06:33:47.113Z,-3.39
2023-02-09T06:34:47.094Z,-3.37
2023-02-09T06:35:47.117Z,-3.47
2023-02-09T06:36:47.077Z,-3.52
2023-02-09T06:37:47.076Z,-3.57
2023-02-09T06:38:47.042Z,-3.64
2023-02-09T06:39:47.035Z,-3.47
2023-02-09T06:40:47.399Z,-3.55
2023-02-09T06:41:47.030Z,-3.41
2023-02-09T06:42:47.048Z,-3.39
2023-02-09T06:43:47.041Z,-3.43
2023-02-09T06:44:46.986Z,-3.41
2023-02-09T06:45:46.983Z,-3.41
2023-02-09T06:46:46.955Z,-3.46
2023-02-09T06:47:47.027Z,-3.37
2023-02-09T06:48:46.964Z,-3.43
2023-02-09T06:49:46.967Z,-3.36
2023-02-09T06:50:47.282Z,-3.41
2023-02-09T06:51:46.936Z,-3.39
2023-02-09T06:52:47.037Z,-3.34
2023-02-09T06:53:46.894Z,-3.37
2023-02-09T06:54:46.872Z,-3.41
2023-02-09T06:55:46.888Z,-3.37
2023-02-09T06:56:46.878Z,-3.41
2023-02-09T06:57:46.899Z,-3.37
2023-02-09T06:58:46.872Z,-3.37
2023-02-09T06:59:46.814Z,-3.31
2023-02-09T07:00:47.302Z,-3.37
2023-02-09T07:01:46.831Z,-3.34
2023-02-09T07:02:46.853Z,-3.34
2023-02-09T07:03:46.776Z,-3.19
2023-02-09T07:04:46.779Z,-3.33
2023-02-09T07:05:46.751Z,-3.19
2023-02-09T07:06:46.761Z,-3.16
2023-02-09T07:07:46.750Z,-3.13
2023-02-09T07:08:46.738Z,-3.02
2023-02-09T07:09:46.719Z,-3.08
2023-02-09T07:10:47.028Z,-2.97
2023-02-09T07:11:46.736Z,-3.04
2023-02-09T07:12:46.717Z,-2.95
2023-02-09T07:13:46.788Z,-3.01
2023-02-09T07:14:46.714Z,-3.12
2023-02-09T07:15:46.710Z,-3.00
2023-02-09T07:16:46.664Z,-3.02
2023-02-09T07:17:46.681Z,-3.04
2023-02-09T07:18:46.631Z,-2.93
2023-02-09T07:19:46.706Z,-2.90
2023-02-09T07:20:46.991Z,-2.97
2023-02-09T07:21:46.695Z,-2.98
2023-02-09T07:22:46.635Z,-3.01
2023-02-09T07:23:46.641Z,-2.94
2023-02-09T07:24:46.590Z,-2.87
2023-02-09T07:25:46.559Z,-2.95
2023-02-09T07:26:46.614Z,-2.93
2023-02-09T07:27:46.580Z,-2.95
2023-02-09T07:28:46.528Z,-2.84
2023-02-09T07:29:46.538Z,-2.84
2023-02-09T07:30:46.898Z,-2.76
2023-02-09T07:31:46.624Z,-2.72
2023-02-09T07:32:46.676Z,-2.68
2023-02-09T07:33:46.507Z,-2.64
2023-02-09T07:34:46.506Z,-2.58
2023-02-09T07:35:46.539Z,-2.53
2023-02-09T07:36:47.890Z,-2.47
2023-02-09T07:37:46.430Z,-2.46
2023-02-09T07:38:46.449Z,-2.37
2023-02-09T07:39:46.456Z,-2.38
2023-02-09T07:40:47.016Z,-2.35
2023-02-09T07:41:46.493Z,-2.25
2023-02-09T07:42:46.465Z,-1.95
2023-02-09T07:43:46.455Z,-1.36
2023-02-09T07:44:46.410Z,-0.85
2023-02-09T07:45:46.869Z,-0.31
2023-02-09T07:46:46.558Z,0.10
2023-02-09T07:47:46.382Z,0.49
2023-02-09T07:48:46.380Z,0.90
2023-02-09T07:49:46.360Z,1.34
2023-02-09T07:50:46.591Z,1.83
2023-02-09T07:51:46.344Z,2.08
2023-02-09T07:52:46.298Z,2.29
2023-02-09T07:53:46.278Z,2.58
2023-02-09T07:54:46.292Z,2.73
2023-02-09T07:55:46.582Z,2.32
2023-02-09T07:56:46.296Z,1.64
2023-02-09T07:57:46.254Z,1.65
2023-02-09T07:58:46.216Z,1.56
2023-02-09T07:59:46.225Z,1.38
2023-02-09T08:00:46.254Z,1.47
2023-02-09T08:01:46.230Z,1.79
2023-02-09T08:02:46.209Z,1.88
2023-02-09T08:03:46.174Z,1.93
2023-02-09T08:04:46.230Z,2.41
2023-02-09T08:05:46.482Z,2.73
2023-02-09T08:06:46.154Z,2.22
2023-02-09T08:07:46.135Z,2.41
2023-02-09T08:08:46.339Z,2.45
2023-02-09T08:09:46.116Z,2.51
2023-02-09T08:10:46.139Z,2.68
2023-02-09T08:11:46.266Z,2.62
2023-02-09T08:12:46.102Z,2.26
2023-02-09T08:13:46.068Z,2.15
2023-02-09T08:14:46.216Z,2.32
2023-02-09T08:15:46.477Z,2.47
2023-02-09T08:16:46.087Z,2.51
2023-02-09T08:17:46.067Z,2.44
2023-02-09T08:18:46.030Z,2.37
2023-02-09T08:19:46.013Z,2.41
2023-02-09T08:20:46.001Z,2.37
2023-02-09T08:21:46.034Z,2.27
2023-02-09T08:22:46.023Z,2.15
2023-02-09T08:23:46.008Z,2.08
2023-02-09T08:24:46.012Z,2.15
2023-02-09T08:25:46.540Z,2.15
2023-02-09T08:26:45.957Z,2.44
2023-02-09T08:27:45.956Z,2.79
2023-02-09T08:28:46.047Z,2.58
2023-02-09T08:29:48.568Z,2.19
2023-02-09T08:30:45.927Z,2.04
2023-02-09T08:31:46.049Z,2.09
2023-02-09T08:32:45.903Z,2.36
2023-02-09T08:33:45.865Z,2.68
2023-02-09T08:34:45.862Z,2.87
2023-02-09T08:35:46.244Z,2.90
2023-02-09T08:36:45.820Z,2.65
2023-02-09T08:37:45.837Z,2.69
2023-02-09T08:38:45.859Z,2.53
2023-02-09T08:39:45.861Z,2.77
2023-02-09T08:40:45.814Z,2.84
2023-02-09T08:41:46.503Z,3.05
2023-02-09T08:42:45.794Z,2.99
2023-02-09T08:43:45.785Z,3.20
2023-02-09T08:44:45.837Z,2.81
2023-02-09T08:45:46.277Z,2.76
2023-02-09T08:46:45.935Z,2.71
2023-02-09T08:47:45.722Z,2.71
2023-02-09T08:48:45.736Z,2.50
2023-02-09T08:49:45.748Z,2.81
2023-02-09T08:50:45.707Z,2.80
2023-02-09T08:51:45.698Z,2.89
2023-02-09T08:52:45.676Z,2.76
2023-02-09T08:53:45.669Z,2.74
2023-02-09T08:54:45.651Z,3.01
2023-02-09T08:55:45.880Z,3.07
2023-02-09T08:56:45.646Z,3.13
2023-02-09T08:57:45.626Z,2.98
2023-02-09T08:58:45.677Z,2.74
2023-02-09T08:59:45.634Z,2.77
2023-02-09T09:00:45.693Z,3.10
2023-02-09T09:01:45.593Z,3.41
2023-02-09T09:02:45.584Z,3.57
2023-02-09T09:03:45.636Z,3.41
2023-02-09T09:04:45.535Z,3.46
2023-02-09T09:05:45.939Z,3.50
2023-02-09T09:06:47.190Z,3.60
2023-02-09T09:07:45.562Z,3.46
2023-02-09T09:08:45.513Z,3.56
2023-02-09T09:09:45.535Z,3.74
2023-02-09T09:10:45.473Z,3.71
2023-02-09T09:11:45.472Z,4.02
2023-02-09T09:12:45.499Z,4.13
2023-02-09T09:13:45.482Z,4.28
2023-02-09T09:14:45.501Z,4.46
2023-02-09T09:15:45.911Z,4.56
2023-02-09T09:16:45.671Z,4.54
2023-02-09T09:17:45.539Z,4.61
2023-02-09T09:18:45.472Z,4.62
2023-02-09T09:19:45.383Z,5.01
2023-02-09T09:20:45.399Z,5.14
2023-02-09T09:21:45.375Z,5.17
2023-02-09T09:22:45.357Z,5.41
2023-02-09T09:23:45.343Z,5.41
2023-02-09T09:24:45.351Z,5.41
2023-02-09T09:25:45.765Z,5.41
2023-02-09T09:26:45.351Z,5.66
2023-02-09T09:27:45.321Z,5.70
2023-02-09T09:28:45.285Z,5.90
2023-02-09T09:29:45.466Z,5.87
2023-02-09T09:30:45.348Z,5.52
2023-02-09T09:31:45.317Z,5.63
2023-02-09T09:32:45.322Z,5.51
2023-02-09T09:33:45.248Z,5.42
2023-02-09T09:34:45.211Z,5.92
2023-02-09T09:35:45.714Z,5.63
2023-02-09T09:36:45.494Z,5.62
2023-02-09T09:37:45.209Z,5.99
2023-02-09T09:38:47.415Z,6.42
2023-02-09T09:39:50.077Z,6.03
2023-02-09T09:40:59.127Z,6.02
2023-02-09T09:41:45.134Z,5.55
2023-02-09T09:42:45.173Z,4.97
2023-02-09T09:43:45.133Z,4.61
2023-02-09T09:44:47.231Z,4.26
2023-02-09T09:45:45.858Z,3.92
2023-02-09T09:46:46.081Z,3.95
2023-02-09T09:47:48.179Z,3.86
2023-02-09T09:51:29.149Z,4.08
2023-02-09T09:51:45.034Z,4.07
2023-02-09T09:52:45.101Z,3.72
2023-02-09T09:53:45.017Z,3.81
2023-02-09T09:54:44.994Z,3.99
2023-02-09T09:55:44.987Z,4.17
2023-02-09T09:56:48.792Z,4.38
2023-02-09T09:57:56.921Z,4.46
2023-02-09T09:58:44.963Z,4.80
2023-02-09T09:59:44.958Z,5.37
2023-02-09T10:00:44.957Z,6.02
2023-02-09T10:01:44.925Z,6.17
2023-02-09T10:02:45.021Z,6.36
2023-02-09T10:03:45.071Z,6.27
2023-02-09T10:04:44.919Z,6.05
2023-02-09T10:05:49.491Z,5.98
2023-02-09T10:06:45.121Z,6.01
2023-02-09T10:07:52.431Z,5.90
2023-02-09T10:08:44.841Z,6.51
2023-02-09T10:09:44.836Z,6.02
2023-02-09T10:10:45.297Z,5.87
2023-02-09T10:11:44.811Z,5.95
2023-02-09T10:12:44.996Z,6.65
2023-02-09T10:13:44.814Z,6.75
2023-02-09T10:14:50.174Z,6.94
2023-02-09T10:15:46.267Z,6.91
2023-02-09T10:16:45.826Z,7.12
2023-02-09T10:17:44.788Z,6.93
2023-02-09T10:18:44.805Z,6.78
2023-02-09T10:19:44.732Z,6.68
2023-02-09T10:20:44.722Z,6.65
2023-02-09T10:21:44.970Z,6.63
2023-02-09T10:22:44.715Z,6.03
2023-02-09T10:23:52.264Z,5.77
2023-02-09T10:24:44.677Z,5.80
2023-02-09T10:25:45.012Z,5.84
2023-02-09T10:26:44.719Z,5.78
2023-02-09T10:27:44.635Z,5.70
2023-02-09T10:28:44.646Z,5.69
2023-02-09T10:29:44.627Z,5.75
2023-02-09T10:30:44.710Z,5.96
2023-02-09T10:31:44.893Z,5.99
2023-02-09T10:32:51.589Z,6.32
2023-02-09T10:33:45.590Z,6.35
2023-02-09T10:34:44.642Z,6.25
2023-02-09T10:35:45.048Z,5.93
2023-02-09T10:36:44.543Z,5.78
2023-02-09T10:37:44.572Z,5.63
2023-02-09T10:38:44.563Z,5.99
2023-02-09T10:39:44.519Z,5.78
2023-02-09T10:40:44.657Z,5.69
2023-02-09T10:44:02.439Z,5.93
2023-02-09T10:45:02.915Z,5.96
2023-02-09T10:46:02.346Z,5.96
2023-02-09T10:47:02.325Z,6.20
2023-02-09T10:48:02.320Z,6.58
2023-02-09T10:49:02.283Z,7.30
2023-02-09T10:50:02.267Z,7.58
2023-02-09T10:51:02.276Z,7.85
2023-02-09T10:52:02.248Z,8.17
2023-02-09T10:53:03.452Z,8.25
2023-02-09T10:56:30.948Z,8.58
2023-02-09T10:57:30.958Z,8.28
2023-02-09T10:58:30.933Z,8.49
2023-02-09T11:02:25.256Z,7.76
2023-02-09T11:03:25.460Z,8.02
2023-02-09T11:04:25.299Z,7.66
2023-02-09T11:05:32.284Z,7.44
2023-02-09T11:06:25.141Z,7.39
2023-02-09T11:07:25.228Z,6.81
2023-02-09T11:08:25.116Z,6.97
2023-02-09T11:09:25.190Z,7.09
2023-02-09T11:10:25.097Z,7.05
2023-02-09T11:11:33.242Z,6.78
2023-02-09T11:12:25.207Z,6.54
2023-02-09T11:13:25.056Z,6.45
2023-02-09T11:14:25.054Z,6.91
2023-02-09T11:15:25.043Z,7.27
2023-02-09T11:16:25.083Z,7.62
2023-02-09T11:17:25.651Z,7.70
2023-02-09T11:18:25.016Z,7.66
2023-02-09T11:19:25.203Z,7.42
2023-02-09T11:20:39.668Z,7.11
2023-02-09T11:21:26.069Z,7.09
2023-02-09T11:22:28.988Z,6.99
2023-02-09T11:23:24.946Z,7.05
2023-02-09T11:24:26.314Z,7.09
2023-02-09T11:25:24.946Z,7.21
2023-02-09T11:26:32.301Z,7.29
2023-02-09T11:27:24.927Z,7.41
2023-02-09T11:28:24.980Z,7.33
2023-02-09T11:29:24.922Z,7.45
2023-02-09T11:30:31.959Z,7.55
2023-02-09T11:31:26.137Z,7.48
2023-02-09T11:32:25.117Z,7.73
2023-02-09T11:33:32.699Z,8.00
2023-02-09T11:34:26.272Z,7.99
2023-02-09T11:35:24.851Z,7.99
2023-02-09T11:36:24.930Z,7.89
2023-02-09T11:37:24.823Z,7.81
2023-02-09T11:38:24.927Z,7.50
2023-02-09T11:39:24.811Z,7.69
2023-02-09T11:40:25.166Z,7.63
2023-02-09T11:41:36.547Z,7.23
2023-02-09T11:42:24.818Z,6.99
2023-02-09T11:43:24.741Z,7.23
2023-02-09T11:44:24.729Z,7.37
2023-02-09T11:45:24.726Z,7.33
2023-02-09T11:46:24.783Z,6.96
2023-02-09T11:47:24.872Z,6.53
2023-02-09T11:48:24.684Z,6.61
2023-02-09T11:49:24.790Z,6.82
2023-02-09T11:50:25.592Z,7.05
2023-02-09T11:51:24.666Z,7.39
2023-02-09T11:52:24.732Z,7.81
2023-02-09T11:53:24.624Z,8.67
2023-02-09T11:54:24.613Z,9.20
2023-02-09T11:55:24.609Z,9.42
2023-02-09T11:56:24.659Z,9.63
2023-02-09T11:57:24.617Z,9.89
2023-02-09T11:58:31.270Z,9.71
2023-02-09T11:59:25.145Z,9.60
2023-02-09T12:00:24.555Z,9.55
2023-02-09T12:01:24.553Z,9.48
2023-02-09T12:02:24.620Z,9.58
2023-02-09T12:03:24.527Z,9.71
2023-02-09T12:04:24.527Z,9.48
2023-02-09T12:05:24.550Z,9.23
2023-02-09T12:06:24.542Z,9.52
2023-02-09T12:07:28.650Z,9.60
2023-02-09T12:08:24.629Z,9.34
2023-02-09T12:09:24.557Z,9.45
2023-02-09T12:10:24.440Z,9.74
2023-02-09T12:11:24.444Z,9.48
2023-02-09T12:12:24.440Z,9.19
2023-02-09T12:13:24.436Z,9.62
2023-02-09T12:14:24.671Z,10.01
2023-02-09T12:15:24.388Z,9.85
2023-02-09T12:16:27.309Z,9.58
2023-02-09T12:17:24.537Z,9.60
2023-02-09T12:18:24.383Z,9.34
2023-02-09T12:19:24.350Z,9.19
2023-02-09T12:20:24.336Z,9.48
2023-02-09T12:21:24.323Z,9.58
2023-02-09T12:22:24.380Z,9.60
2023-02-09T12:23:24.306Z,9.59
2023-02-09T12:24:24.285Z,9.52
2023-02-09T12:25:31.240Z,9.30
2023-02-09T12:26:24.522Z,9.04
2023-02-09T12:27:24.285Z,9.24
2023-02-09T12:28:24.397Z,9.48
2023-02-09T12:29:24.455Z,9.56
2023-02-09T12:30:24.217Z,9.83
2023-02-09T12:31:24.536Z,9.83
2023-02-09T12:32:24.410Z,9.65
2023-02-09T12:33:24.384Z,9.42
2023-02-09T12:36:42.608Z,9.22
2023-02-09T12:37:39.936Z,9.49
2023-02-09T12:38:39.905Z,9.48
2023-02-09T12:39:39.902Z,9.19
2023-02-09T12:40:39.886Z,9.06
2023-02-09T12:41:41.197Z,9.16
2023-02-09T12:42:39.876Z,9.22
2023-02-09T12:43:39.869Z,9.23
2023-02-09T12:44:39.906Z,9.08
2023-02-09T12:45:45.240Z,8.75
2023-02-09T12:46:39.846Z,8.60
2023-02-09T12:47:39.825Z,8.75
2023-02-09T12:48:39.796Z,8.65
2023-02-09T12:49:39.788Z,8.46
2023-02-09T12:50:39.782Z,7.96
2023-02-09T12:51:39.810Z,7.76
2023-02-09T12:52:39.771Z,7.63
2023-02-09T12:53:40.839Z,7.63
2023-02-09T12:54:40.198Z,7.51
2023-02-09T12:55:39.840Z,7.27
2023-02-09T12:57:48.589Z,7.42
2023-02-09T12:58:48.534Z,7.57
2023-02-09T12:59:48.560Z,7.79
2023-02-09T13:00:48.556Z,7.84
2023-02-09T13:01:48.535Z,8.03
2023-02-09T13:02:49.152Z,8.24
2023-02-09T13:03:48.549Z,7.86
2023-02-09T13:05:56.596Z,8.20
2023-02-09T13:06:48.946Z,8.32
2023-02-09T13:07:48.581Z,8.57
2023-02-09T13:08:48.450Z,8.61
2023-02-09T13:09:48.755Z,8.60
2023-02-09T13:10:48.568Z,8.50
2023-02-09T13:11:48.440Z,8.68
2023-02-09T13:12:49.205Z,8.91
2023-02-09T13:13:48.614Z,9.13
2023-02-09T13:14:48.587Z,8.93
2023-02-09T13:15:48.617Z,9.03
2023-02-09T13:16:48.413Z,8.96